Yakima, WA

6:02 AM PST on January 27, 2015 (GMT -0800)
Yakima Air Term-McAllister | Change Station
CLOSE
Current Station
Airport
Location: Yakima,
Elevation: 1066 ft
Nearby Weather Stations
Active Advisory: Dense Fog Advisory Active Notice: Record Report

Elev 1066 ft 46.57 °N, 120.54 °W | Updated 9 minutes ago

Fog
Fog
33 °F
Feels Like 30 °F
N
4
Wind Variable Wind from SW

Today
High -- | Low -- °F
--% Chance of Precip.
Yesterday
High -- | Low -- °F
Precip. -- in
7:31 AM 4:58 PM
First Quarter, 54% visible
Pressure 30.04 in
Visibility 0.2 miles
Clouds
Windchill 30 °F
Dew Point 31 °F
Humidity 92%
Rainfall 0.00 in
Snow Depth Not available.
UV Not available.
Pollen 4.60 out of 12
Air Quality Not available.
Flu Activity Not available.
METAR KYKM 271353Z 22003KT 1/4SM R27/3000FT FG VV002 01/M01 A3001 RMK AO2 SFC VIS 1/2 SLP173 I1000 T00061006

More Conditions Fewer Conditions

Pressure 30.04 in
Visibility 0.2 miles
Clouds
Windchill 30 °F
Dew Point 31 °F
Humidity 92%
Rainfall 0.00 in
Snow Depth Not available.
UV Not available.
Pollen 4.60 out of 12
Air Quality Not available.
Flu Activity Not available.
METAR KYKM 271353Z 22003KT 1/4SM R27/3000FT FG VV002 01/M01 A3001 RMK AO2 SFC VIS 1/2 SLP173 I1000 T00061006

More Conditions Fewer Conditions

10-Day Weather Forecast

Almanac

Astronomy

Jan. 27, 2015 Rise Set
Actual Time
Civil Twilight
Nautical Twilight
Astronomical Twilight
Moon
Length of Visible Light
Length of Day
Tomorrow will be .
, % of the Moon is Illuminated

Today's Extremes

State Highs State Lows

Community

WunderPhotos

Upload Photos

1,790,637 photos uploaded!

WunderBlogs® & News

Nearby

Air Quality

  Air Quality AQ Index Pollutant
Not available.

Snow Depth

Station Depth Elevation

Earthquake Activity

City Distance Mag. Time & Date
Minimum magnitude displayed is 2.5.

Coastal Water Temperatures

Place Temperature

Nearby Weather Stations